»·PEaware :: N333ZA F70-KBLH

N333ZA :: F70-KBLH

FLIGHT INFORMATION

Flight Status: Arrived
Operator: Privately registered:
United States
More flights under this callsign
Pilot: Judd H. (29974)
Aircraft: CESSNA 210 CENTURION
(C210)
More flights by this aircraft type
Origin: F70 French Valley
United States
Destination: KBLH Blythe
United States
More flights between these airports :: More routes between these airports
Route: HEMET V64 BLH
File this flight plan on PilotEdge
Remarks:
Altitude:
(Current/Filed)
17,000ft
Speed:
(Current/Filed)
160kts
Departed: 30-Oct-20 12:54 PM
Arrived: 30-Oct-20 01:53 PM
Distance/Time
Traveled:
121nm/0:59
Distance/Time
To Go:
Arrived

Flight Plot

Page will automatically refresh every two minutes.


Map Options




Map Legend


Flown Route
Filed Route
Departure Airport
Arrival Airport
Navaid (VOR, NDB)
Fix

Horizontal Profiles

Position Reports

Time Latitude Longitude Heading Altitude Ground
Speed
30-Oct-20 12:36 33.575697 -117.130353 105 1353ft 0kts
30-Oct-20 12:37 33.575697 -117.130353 105 1353ft 0kts
30-Oct-20 12:38 33.575697 -117.130353 105 1353ft 0kts
30-Oct-20 12:39 33.575697 -117.130352 105 1353ft 0kts
30-Oct-20 12:40 33.575697 -117.130352 105 1353ft 0kts
30-Oct-20 12:41 33.575697 -117.130352 105 1353ft 0kts
30-Oct-20 12:42 33.575697 -117.130352 105 1353ft 0kts
30-Oct-20 12:43 33.575697 -117.130352 105 1353ft 0kts
30-Oct-20 12:44 33.575697 -117.130352 105 1353ft 0kts
30-Oct-20 12:45 33.575697 -117.130351 105 1353ft 0kts
30-Oct-20 12:46 33.575697 -117.130351 105 1353ft 0kts
30-Oct-20 12:47 33.575694 -117.130339 105 1353ft 1kts
30-Oct-20 12:48 33.578525 -117.128778 14 1353ft 15kts
30-Oct-20 12:49 33.582221 -117.127290 38 1353ft 7kts
30-Oct-20 12:50 33.582283 -117.126945 105 1353ft 0kts
30-Oct-20 12:51 33.582283 -117.126945 105 1353ft 0kts
30-Oct-20 12:52 33.581547 -117.126545 191 1353ft 20kts
30-Oct-20 12:53 33.561058 -117.132676 198 1860ft 99kts
30-Oct-20 12:54 33.541835 -117.122320 63 3124ft 105kts
30-Oct-20 12:55 33.560827 -117.088613 53 4073ft 131kts
30-Oct-20 12:56 33.585140 -117.050601 54 4863ft 143kts
30-Oct-20 12:57 33.611200 -117.008763 53 5764ft 166kts
30-Oct-20 12:58 33.628303 -116.962538 102 6772ft 150kts
30-Oct-20 12:59 33.623792 -116.913907 93 7763ft 140kts
30-Oct-20 13:00 33.622643 -116.868247 89 8749ft 133kts
30-Oct-20 13:01 33.623736 -116.823991 88 9747ft 132kts
30-Oct-20 13:02 33.625266 -116.779289 85 10697ft 136kts
30-Oct-20 13:03 33.627920 -116.732967 88 11599ft 141kts
30-Oct-20 13:04 33.628440 -116.685725 91 12500ft 142kts
30-Oct-20 13:05 33.626957 -116.638441 92 13401ft 141kts
30-Oct-20 13:06 33.626043 -116.591203 91 14299ft 140kts
30-Oct-20 13:07 33.626944 -116.544664 88 15189ft 138kts
30-Oct-20 13:08 33.628144 -116.499183 88 16075ft 133kts
30-Oct-20 13:09 33.628938 -116.451609 91 16568ft 157kts
30-Oct-20 13:10 33.628788 -116.394593 91 16897ft 177kts
30-Oct-20 13:11 33.628591 -116.334009 90 16944ft 191kts
30-Oct-20 13:12 33.628590 -116.269183 91 16907ft 197kts
30-Oct-20 13:13 33.628318 -116.204753 90 16983ft 198kts
30-Oct-20 13:14 33.628357 -116.138726 90 16965ft 198kts
30-Oct-20 13:15 33.628716 -116.072381 90 16969ft 198kts
30-Oct-20 13:16 33.629364 -116.006485 89 16979ft 197kts
30-Oct-20 13:17 33.628803 -115.940458 97 16993ft 197kts
30-Oct-20 13:18 33.622979 -115.875501 93 17008ft 196kts
30-Oct-20 13:19 33.621116 -115.810083 92 17016ft 195kts
30-Oct-20 13:20 33.619627 -115.744695 92 17020ft 195kts
30-Oct-20 13:21 33.618071 -115.679229 92 16855ft 204kts
30-Oct-20 13:22 33.616595 -115.608339 91 15744ft 210kts
30-Oct-20 13:23 33.616052 -115.538469 91 14805ft 205kts
30-Oct-20 13:24 33.615341 -115.471438 93 14098ft 197kts
30-Oct-20 13:25 33.612491 -115.404543 94 13405ft 196kts
30-Oct-20 13:26 33.609050 -115.339902 94 12701ft 191kts
30-Oct-20 13:27 33.606351 -115.276357 93 11999ft 189kts
30-Oct-20 13:28 33.603820 -115.213920 93 11302ft 187kts
30-Oct-20 13:29 33.601318 -115.151911 93 10602ft 185kts
30-Oct-20 13:30 33.598760 -115.090323 93 9901ft 183kts
30-Oct-20 13:31 33.596250 -115.030043 93 9198ft 180kts
30-Oct-20 13:32 33.593782 -114.970606 93 8603ft 175kts
30-Oct-20 13:33 33.591388 -114.912576 93 8099ft 172kts
30-Oct-20 13:34 33.589251 -114.855747 93 7601ft 170kts
30-Oct-20 13:35 33.587658 -114.798722 93 7037ft 168kts
30-Oct-20 13:36 33.585831 -114.744792 93 6213ft 156kts
30-Oct-20 13:37 33.583329 -114.694683 93 6122ft 147kts
30-Oct-20 13:38 33.580851 -114.646223 93 6123ft 144kts
30-Oct-20 13:39 33.566061 -114.602269 118 6125ft 144kts
30-Oct-20 13:40 33.546327 -114.560074 118 6127ft 144kts
30-Oct-20 13:41 33.526564 -114.517885 118 6129ft 144kts
30-Oct-20 13:43 33.530951 -114.475742 51 6132ft 142kts
30-Oct-20 13:44 33.555145 -114.437502 58 6061ft 142kts
30-Oct-20 13:45 33.586284 -114.418462 331 5764ft 149kts
30-Oct-20 13:46 33.618194 -114.451002 321 5031ft 153kts
30-Oct-20 13:47 33.649097 -114.486019 297 4101ft 150kts
30-Oct-20 13:48 33.642558 -114.531343 257 3491ft 140kts
30-Oct-20 13:49 33.635416 -114.576367 261 2834ft 136kts
30-Oct-20 13:50 33.628345 -114.622819 258 1908ft 139kts
30-Oct-20 13:51 33.621538 -114.662165 259 1354ft 97kts
30-Oct-20 13:52 33.616936 -114.691255 261 664ft 80kts
30-Oct-20 13:53 33.616546 -114.714395 260 400ft 14kts
30-Oct-20 13:54 33.614568 -114.713667 104 400ft 8kts
30-Oct-20 13:55 33.614795 -114.713105 4 400ft 0kts
30-Oct-20 13:56 33.614795 -114.713105 4 400ft 0kts
30-Oct-20 13:57 33.614795 -114.713105 4 400ft 0kts
30-Oct-20 13:58 33.614795 -114.713105 4 400ft 0kts
30-Oct-20 13:58 33.614795 -114.713105 4 400ft 0kts
30-Oct-20 14:00 33.614795 -114.713105 4 400ft 0kts
30-Oct-20 14:00 33.614795 -114.713105 4 400ft 0kts
30-Oct-20 14:01 33.614795 -114.713105 4 400ft 0kts

Navigation Log

Ident Type
Flight plan parsing failed, navigation log unavailable